Time;durP1;ratioP1;P1;durP2;ratioP2;P2;SDS_P1;SDS_P2;PMS_P1;PMS_P2;Temp;Humidity;BMP_temperature;BMP_pressure;BME280_temperature;BME280_humidity;BME280_pressure;Samples;Min_cycle;Max_cycle;Signal;HPM_P1;HPM_P2
2022/08/16 00:01:41;;;;;;;0.70;0.60;;;;;;;-145.06;100.00;60892.56;4826593;28;20381;-86
2022/08/16 00:04:20;;;;;;;0.75;0.60;;;;;;;-145.06;100.00;60892.56;4833186;28;20037;-86
2022/08/16 00:07:00;;;;;;;0.60;0.60;;;;;;;-145.06;100.00;60892.56;4831729;28;20042;-86
2022/08/16 00:09:39;;;;;;;1.30;0.70;;;;;;;-145.06;100.00;60892.56;4830668;28;20045;-87
2022/08/16 00:12:18;;;;;;;0.60;0.50;;;;;;;-145.06;100.00;60892.56;4833440;28;20038;-87
2022/08/16 00:15:00;;;;;;;0.43;0.40;;;;;;;-145.06;100.00;60892.56;4829146;28;20038;-87
2022/08/16 00:17:40;;;;;;;0.70;0.60;;;;;;;-145.06;100.00;60892.56;4830213;28;20042;-87
2022/08/16 00:20:20;;;;;;;0.40;0.40;;;;;;;-145.06;100.00;60892.56;4829276;28;20030;-87
2022/08/16 00:22:59;;;;;;;0.50;0.30;;;;;;;-145.06;100.00;60892.56;4828153;28;20547;-87
2022/08/16 00:25:39;;;;;;;0.73;0.50;;;;;;;-145.06;100.00;60892.56;4832770;28;20038;-87
2022/08/16 00:28:18;;;;;;;0.70;0.50;;;;;;;-145.06;100.00;60892.56;4831560;28;20041;-88
2022/08/16 00:30:57;;;;;;;0.55;0.40;;;;;;;-145.06;100.00;60892.56;4837137;28;20038;-87
2022/08/16 00:33:36;;;;;;;0.80;0.50;;;;;;;-145.06;100.00;60892.56;4842494;28;20046;-87
2022/08/16 00:36:15;;;;;;;0.65;0.30;;;;;;;-145.06;100.00;60892.56;4848613;28;20014;-87
2022/08/16 00:38:54;;;;;;;0.30;0.30;;;;;;;-145.06;100.00;60892.56;4836363;28;20444;-86
2022/08/16 00:41:34;;;;;;;0.55;0.40;;;;;;;-145.06;100.00;60892.56;4826184;28;20026;-88
2022/08/16 00:44:14;;;;;;;0.40;0.40;;;;;;;-145.06;100.00;60892.56;4826491;28;20614;-87
2022/08/16 00:47:00;;;;;;;0.30;0.30;;;;;;;-145.06;100.00;60892.56;4830404;28;20034;-87
2022/08/16 00:49:39;;;;;;;0.32;0.30;;;;;;;-145.06;100.00;60892.56;4832591;28;20029;-87
2022/08/16 00:52:18;;;;;;;0.57;0.40;;;;;;;-145.06;100.00;60892.56;4832401;28;20030;-88
2022/08/16 00:54:58;;;;;;;0.40;0.40;;;;;;;-145.06;100.00;60892.56;4835748;28;20041;-87
2022/08/16 00:57:37;;;;;;;0.40;0.40;;;;;;;-145.06;100.00;60892.56;4842319;28;20030;-86
2022/08/16 01:00:16;;;;;;;1.10;0.50;;;;;;;-145.06;100.00;60892.56;4834979;28;20029;-86
2022/08/16 01:02:59;;;;;;;0.68;0.30;;;;;;;-145.06;100.00;60892.56;4825849;28;20484;-87
2022/08/16 01:05:40;;;;;;;0.47;0.30;;;;;;;-145.06;100.00;60892.56;4833392;28;20369;-86
2022/08/16 01:08:21;;;;;;;1.10;0.50;;;;;;;-145.06;100.00;60892.56;4830053;28;20029;-86
2022/08/16 01:11:02;;;;;;;0.20;0.20;;;;;;;-145.06;100.00;60892.56;4830307;28;20025;-87
2022/08/16 01:13:43;;;;;;;0.52;0.40;;;;;;;-145.06;100.00;60892.56;4856644;28;20049;-87
2022/08/16 01:16:25;;;;;;;0.45;0.45;;;;;;;-145.06;100.00;60892.56;4833366;28;20037;-87
2022/08/16 01:19:16;;;;;;;0.50;0.50;;;;;;;-145.06;100.00;60892.56;4830662;28;20364;-86
2022/08/16 01:22:14;;;;;;;0.68;0.40;;;;;;;-145.06;100.00;60892.56;4827677;28;20035;-86
2022/08/16 01:25:17;;;;;;;0.40;0.40;;;;;;;-145.06;100.00;60892.56;4827538;28;20037;-87
2022/08/16 01:28:00;;;;;;;0.20;0.20;;;;;;;-145.06;100.00;60892.56;4835400;28;20517;-87
2022/08/16 01:30:43;;;;;;;0.80;0.43;;;;;;;-145.06;100.00;60892.56;4828620;28;20021;-87
2022/08/16 01:33:22;;;;;;;0.90;0.50;;;;;;;-145.06;100.00;60892.56;4833425;28;20029;-86
2022/08/16 01:36:05;;;;;;;0.57;0.40;;;;;;;-145.06;100.00;60892.56;4833245;28;20112;-86
2022/08/16 01:38:47;;;;;;;0.40;0.40;;;;;;;-145.06;100.00;60892.56;4830567;28;20132;-86
2022/08/16 01:41:29;;;;;;;0.50;0.30;;;;;;;-145.06;100.00;60892.56;4831967;28;20041;-87
2022/08/16 01:44:08;;;;;;;0.40;0.38;;;;;;;-145.06;100.00;60892.56;4819869;28;20030;-87
2022/08/16 01:46:48;;;;;;;0.50;0.50;;;;;;;-145.06;100.00;60892.56;4851118;28;20475;-86
2022/08/16 01:49:32;;;;;;;0.30;0.30;;;;;;;-145.06;100.00;60892.56;4831012;28;20029;-87
2022/08/16 01:52:15;;;;;;;0.38;0.30;;;;;;;-145.06;100.00;60892.56;4832433;28;20034;-87
2022/08/16 01:54:54;;;;;;;0.70;0.40;;;;;;;-145.06;100.00;60892.56;4830427;28;20042;-87
2022/08/16 01:57:34;;;;;;;0.50;0.40;;;;;;;-145.06;100.00;60892.56;4828923;28;20661;-88
2022/08/16 02:00:14;;;;;;;0.40;0.38;;;;;;;-145.06;100.00;60892.56;4830469;28;20077;-87
2022/08/16 02:02:53;;;;;;;0.50;0.30;;;;;;;-145.06;100.00;60892.56;4830391;28;20037;-87
2022/08/16 02:05:32;;;;;;;0.38;0.38;;;;;;;-145.06;100.00;60892.56;4827859;28;20038;-86
2022/08/16 02:08:11;;;;;;;0.30;0.28;;;;;;;-145.06;100.00;60892.56;4832864;28;20073;-87
2022/08/16 02:10:51;;;;;;;0.60;0.50;;;;;;;-145.06;100.00;60892.56;4831155;28;20029;-87
2022/08/16 02:13:29;;;;;;;0.30;0.25;;;;;;;-145.06;100.00;60892.56;4833224;28;20030;-86
2022/08/16 02:16:09;;;;;;;0.52;0.40;;;;;;;-145.06;100.00;60892.56;4831912;28;20037;-87
2022/08/16 02:18:49;;;;;;;0.60;0.50;;;;;;;-145.06;100.00;60892.56;4831463;28;20026;-85
2022/08/16 02:21:29;;;;;;;2.28;0.47;;;;;;;-145.06;100.00;60892.56;4832082;28;20629;-88
2022/08/16 02:24:07;;;;;;;;;;;;;;;-145.06;100.00;60892.56;4832601;28;20041;-86
2022/08/16 02:26:47;;;;;;;0.40;0.40;;;;;;;-145.06;100.00;60892.56;4833303;28;20480;-86
2022/08/16 02:29:26;;;;;;;0.40;0.30;;;;;;;-145.06;100.00;60892.56;4830007;28;20621;-87
2022/08/16 02:32:07;;;;;;;0.20;0.20;;;;;;;-145.06;100.00;60892.56;4831737;28;20026;-86
2022/08/16 02:34:46;;;;;;;0.35;0.30;;;;;;;-145.06;100.00;60892.56;4829513;28;20030;-86
2022/08/16 02:37:25;;;;;;;0.70;0.40;;;;;;;-145.06;100.00;60892.56;4834393;28;20034;-86
2022/08/16 02:40:05;;;;;;;1.02;0.50;;;;;;;-145.06;100.00;60892.56;4831666;28;20116;-86
2022/08/16 02:42:46;;;;;;;0.40;0.30;;;;;;;-145.06;100.00;60892.56;4830566;28;20037;-87
2022/08/16 02:45:27;;;;;;;0.47;0.30;;;;;;;-145.06;100.00;60892.56;4833484;28;20046;-87
2022/08/16 02:48:06;;;;;;;0.38;0.32;;;;;;;-145.06;100.00;60892.56;4832302;28;20473;-86
2022/08/16 02:50:45;;;;;;;0.65;0.40;;;;;;;-145.06;100.00;60892.56;4859129;28;20038;-87
2022/08/16 02:53:24;;;;;;;0.40;0.40;;;;;;;-145.06;100.00;60892.56;4835138;28;20041;-86
2022/08/16 02:56:04;;;;;;;0.50;0.43;;;;;;;-145.06;100.00;60892.56;4825149;28;20277;-87
2022/08/16 02:58:45;;;;;;;1.02;0.43;;;;;;;-145.06;100.00;60892.56;4829263;28;20365;-86
2022/08/16 03:01:29;;;;;;;0.50;0.45;;;;;;;-145.06;100.00;60892.56;4832400;28;20065;-86
2022/08/16 03:04:08;;;;;;;0.35;0.30;;;;;;;-145.06;100.00;60892.56;4826823;28;20030;-86
2022/08/16 03:06:47;;;;;;;0.30;0.30;;;;;;;-145.06;100.00;60892.56;4835974;28;20089;-88
2022/08/16 03:09:25;;;;;;;0.73;0.32;;;;;;;-145.06;100.00;60892.56;4835214;28;20042;-86
2022/08/16 03:12:06;;;;;;;0.35;0.35;;;;;;;-145.06;100.00;60892.56;4834689;28;20101;-87
2022/08/16 03:14:46;;;;;;;0.40;0.40;;;;;;;-145.06;100.00;60892.56;4827135;28;20041;-87
2022/08/16 03:17:25;;;;;;;0.60;0.40;;;;;;;-145.06;100.00;60892.56;4832667;28;20038;-87
2022/08/16 03:20:06;;;;;;;0.32;0.32;;;;;;;-145.06;100.00;60892.56;4829851;28;21190;-87
2022/08/16 03:22:46;;;;;;;0.45;0.35;;;;;;;-145.06;100.00;60892.56;4828923;28;20034;-86
2022/08/16 03:25:25;;;;;;;0.50;0.40;;;;;;;-145.06;100.00;60892.56;4831639;28;20751;-85
2022/08/16 03:28:05;;;;;;;0.40;0.35;;;;;;;-145.06;100.00;60892.56;4834939;28;20041;-85
2022/08/16 03:30:46;;;;;;;0.35;0.30;;;;;;;-145.06;100.00;60892.56;4838132;28;20030;-87
2022/08/16 03:33:25;;;;;;;0.50;0.50;;;;;;;-145.06;100.00;60892.56;4836837;28;20053;-87
2022/08/16 03:36:05;;;;;;;0.50;0.50;;;;;;;-145.06;100.00;60892.56;4835195;28;20033;-87
2022/08/16 03:38:44;;;;;;;0.70;0.50;;;;;;;-145.06;100.00;60892.56;4832701;28;20042;-87
2022/08/16 03:41:25;;;;;;;0.40;0.40;;;;;;;-145.06;100.00;60892.56;4872181;28;20038;-86
2022/08/16 03:44:06;;;;;;;0.40;0.40;;;;;;;-145.06;100.00;60892.56;4846313;28;20689;-86
2022/08/16 03:46:45;;;;;;;0.60;0.45;;;;;;;-145.06;100.00;60892.56;4841022;28;20442;-86
2022/08/16 03:49:24;;;;;;;0.38;0.30;;;;;;;-145.06;100.00;60892.56;4834117;28;20128;-87
2022/08/16 03:52:03;;;;;;;0.50;0.30;;;;;;;-145.06;100.00;60892.56;4835963;28;20033;-86
2022/08/16 03:54:42;;;;;;;0.30;0.30;;;;;;;-145.06;100.00;60892.56;4832729;28;20129;-85
2022/08/16 03:57:21;;;;;;;4.22;0.40;;;;;;;-145.06;100.00;60892.56;4835539;28;20491;-87
2022/08/16 04:00:11;;;;;;;0.63;0.40;;;;;;;-145.06;100.00;60892.56;4834104;28;20029;-86
2022/08/16 04:02:51;;;;;;;0.55;0.50;;;;;;;-145.06;100.00;60892.56;4835898;28;20635;-86
2022/08/16 04:05:30;;;;;;;0.47;0.43;;;;;;;-145.06;100.00;60892.56;4825087;28;20030;-86
2022/08/16 04:08:09;;;;;;;0.40;0.40;;;;;;;-145.06;100.00;60892.56;4837512;28;20025;-88
2022/08/16 04:10:48;;;;;;;0.68;0.32;;;;;;;-145.06;100.00;60892.56;4833088;28;20037;-87
2022/08/16 04:13:28;;;;;;;0.30;0.30;;;;;;;-145.06;100.00;60892.56;4830485;28;20030;-87
2022/08/16 04:16:08;;;;;;;0.35;0.35;;;;;;;-145.06;100.00;60892.56;4831641;28;20025;-88
2022/08/16 04:18:48;;;;;;;0.68;0.40;;;;;;;-145.06;100.00;60892.56;4838173;28;20029;-88
2022/08/16 04:21:28;;;;;;;0.43;0.43;;;;;;;-145.06;100.00;60892.56;4830531;28;20038;-87
2022/08/16 04:24:07;;;;;;;0.80;0.50;;;;;;;-145.06;100.00;60892.56;4831156;28;20033;-87
2022/08/16 04:26:46;;;;;;;0.83;0.60;;;;;;;-145.06;100.00;60892.56;4842713;28;20069;-88
2022/08/16 04:29:26;;;;;;;0.40;0.40;;;;;;;-145.06;100.00;60892.56;4830838;28;20112;-87
2022/08/16 04:32:06;;;;;;;0.55;0.55;;;;;;;-145.06;100.00;60892.56;4828604;28;20456;-87
2022/08/16 04:34:45;;;;;;;0.50;0.40;;;;;;;-145.06;100.00;60892.56;4826369;28;20393;-87
2022/08/16 04:37:25;;;;;;;0.40;0.32;;;;;;;-145.06;100.00;60892.56;4830350;28;20492;-87
2022/08/16 04:40:05;;;;;;;0.40;0.40;;;;;;;-145.06;100.00;60892.56;4830365;28;20030;-87
2022/08/16 04:42:45;;;;;;;0.60;0.40;;;;;;;-145.06;100.00;60892.56;4829799;28;20608;-86
2022/08/16 04:45:24;;;;;;;0.57;0.47;;;;;;;-145.06;100.00;60892.56;4836368;28;20113;-87
2022/08/16 04:48:04;;;;;;;0.40;0.38;;;;;;;-145.06;100.00;60892.56;4834923;28;20034;-86
2022/08/16 04:50:43;;;;;;;0.70;0.40;;;;;;;-145.06;100.00;60892.56;4831263;28;20664;-87
2022/08/16 04:53:22;;;;;;;0.60;0.60;;;;;;;-145.06;100.00;60892.56;4831119;28;20045;-87
2022/08/16 04:56:02;;;;;;;0.95;0.40;;;;;;;-145.06;100.00;60892.56;4829511;28;20061;-87
2022/08/16 04:58:41;;;;;;;0.52;0.40;;;;;;;-145.06;100.00;60892.56;4836111;28;20030;-87
2022/08/16 05:01:20;;;;;;;0.83;0.50;;;;;;;-145.06;100.00;60892.56;4834185;28;20026;-87
2022/08/16 05:03:59;;;;;;;0.57;0.50;;;;;;;-145.06;100.00;60892.56;4827703;28;20065;-87
2022/08/16 05:06:38;;;;;;;0.50;0.40;;;;;;;-145.06;100.00;60892.56;4825760;28;20041;-86
2022/08/16 05:09:17;;;;;;;0.68;0.47;;;;;;;-145.06;100.00;60892.56;4830811;28;20738;-86
2022/08/16 05:11:56;;;;;;;0.60;0.40;;;;;;;-145.06;100.00;60892.56;4831382;28;20494;-87
2022/08/16 05:14:35;;;;;;;0.75;0.35;;;;;;;-145.06;100.00;60892.56;4830327;28;20037;-86
2022/08/16 05:17:14;;;;;;;0.70;0.60;;;;;;;-145.06;100.00;60892.56;4823577;28;20369;-86
2022/08/16 05:19:54;;;;;;;1.05;0.60;;;;;;;-145.06;100.00;60892.56;4828385;28;20083;-86
2022/08/16 05:22:35;;;;;;;1.00;0.60;;;;;;;-145.06;100.00;60892.56;4831782;28;20077;-86
2022/08/16 05:25:15;;;;;;;0.68;0.50;;;;;;;-145.06;100.00;60892.56;4830764;28;20436;-87
2022/08/16 05:27:56;;;;;;;0.90;0.70;;;;;;;-145.06;100.00;60892.56;4825303;28;20029;-87
2022/08/16 05:30:35;;;;;;;1.80;0.70;;;;;;;-145.06;100.00;60892.56;4826758;28;20109;-88
2022/08/16 05:33:14;;;;;;;1.23;0.70;;;;;;;-145.06;100.00;60892.56;4829497;28;20025;-87
2022/08/16 05:35:53;;;;;;;0.73;0.40;;;;;;;-145.06;100.00;60892.56;4830976;28;20125;-87
2022/08/16 05:38:32;;;;;;;0.98;0.88;;;;;;;-145.06;100.00;60892.56;4821577;28;20030;-87
2022/08/16 05:41:11;;;;;;;0.70;0.50;;;;;;;-145.06;100.00;60892.56;4834898;28;20029;-87
2022/08/16 05:43:50;;;;;;;0.88;0.63;;;;;;;-145.06;100.00;60892.56;4828647;28;20030;-88
2022/08/16 05:46:29;;;;;;;0.63;0.57;;;;;;;-145.06;100.00;60892.56;4828417;28;20048;-88
2022/08/16 05:49:08;;;;;;;0.60;0.55;;;;;;;-145.06;100.00;60892.56;4830199;28;20038;-89
2022/08/16 05:51:47;;;;;;;0.70;0.60;;;;;;;-145.06;100.00;60892.56;4825671;28;20038;-88
2022/08/16 05:54:26;;;;;;;0.80;0.50;;;;;;;-145.06;100.00;60892.56;4860161;28;20037;-89
2022/08/16 05:57:05;;;;;;;0.52;0.52;;;;;;;-145.06;100.00;60892.56;4831289;28;20117;-88
2022/08/16 05:59:46;;;;;;;0.70;0.50;;;;;;;-145.06;100.00;60892.56;4833527;28;20030;-89
2022/08/16 06:02:28;;;;;;;0.70;0.60;;;;;;;-145.06;100.00;60892.56;4843908;28;20042;-89
2022/08/16 06:05:09;;;;;;;1.92;0.60;;;;;;;-145.06;100.00;60892.56;4827813;28;20042;-89
2022/08/16 06:07:49;;;;;;;0.60;0.50;;;;;;;-145.06;100.00;60892.56;4829311;28;20034;-88
2022/08/16 06:10:28;;;;;;;0.77;0.70;;;;;;;-145.06;100.00;60892.56;4833118;28;20030;-88
2022/08/16 06:13:07;;;;;;;0.88;0.50;;;;;;;-145.06;100.00;60892.56;4837006;28;20030;-88
2022/08/16 06:15:48;;;;;;;0.52;0.50;;;;;;;-145.06;100.00;60892.56;4829800;28;20144;-88
2022/08/16 06:18:27;;;;;;;0.80;0.57;;;;;;;-145.06;100.00;60892.56;4866958;28;20037;-88
2022/08/16 06:21:06;;;;;;;0.68;0.52;;;;;;;-145.06;100.00;60892.56;4830206;28;20553;-87
2022/08/16 06:23:45;;;;;;;0.70;0.63;;;;;;;-145.06;100.00;60892.56;4827313;28;20037;-88
2022/08/16 06:26:24;;;;;;;0.88;0.50;;;;;;;-145.06;100.00;60892.56;4835297;28;20030;-88
2022/08/16 06:29:04;;;;;;;1.95;0.50;;;;;;;-145.06;100.00;60892.56;4838122;28;20034;-88
2022/08/16 06:31:43;;;;;;;0.63;0.60;;;;;;;-145.06;100.00;60892.56;4830154;28;20109;-88
2022/08/16 06:34:22;;;;;;;0.73;0.50;;;;;;;-145.06;100.00;60892.56;4833878;28;20045;-88
2022/08/16 06:37:01;;;;;;;0.57;0.52;;;;;;;-145.06;100.00;60892.56;4834375;28;20034;-90
2022/08/16 06:39:40;;;;;;;0.82;0.63;;;;;;;-145.06;100.00;60892.56;4837197;28;20688;-90
2022/08/16 06:42:19;;;;;;;0.57;0.57;;;;;;;-145.06;100.00;60892.56;4841990;28;20053;-88
2022/08/16 06:44:58;;;;;;;0.63;0.50;;;;;;;-145.06;100.00;60892.56;4847416;28;20025;-89
2022/08/16 06:47:37;;;;;;;0.75;0.43;;;;;;;-145.06;100.00;60892.56;4849161;28;20113;-89
2022/08/16 06:50:18;;;;;;;0.93;0.77;;;;;;;-145.06;100.00;60892.56;4859896;28;20033;-89
2022/08/16 06:52:57;;;;;;;0.88;0.60;;;;;;;-145.06;100.00;60892.56;4838272;28;20352;-88
2022/08/16 06:55:36;;;;;;;0.55;0.55;;;;;;;-145.06;100.00;60892.56;4842361;28;20030;-89
2022/08/16 06:58:15;;;;;;;0.60;0.57;;;;;;;-145.06;100.00;60892.56;4837736;28;20763;-89
2022/08/16 07:00:54;;;;;;;0.70;0.50;;;;;;;-145.06;100.00;60892.56;4836633;28;20026;-89
2022/08/16 07:03:34;;;;;;;0.88;0.70;;;;;;;-145.06;100.00;60892.56;4830032;28;20041;-88
2022/08/16 07:06:13;;;;;;;0.85;0.75;;;;;;;-145.06;100.00;60892.56;4838037;28;20057;-88
2022/08/16 07:08:52;;;;;;;;;;;;;;;-145.06;100.00;60892.56;4837017;28;20033;-88
2022/08/16 07:11:31;;;;;;;0.52;0.43;;;;;;;-145.06;100.00;60892.56;4845046;28;19913;-90
2022/08/16 07:14:11;;;;;;;0.68;0.57;;;;;;;-145.06;100.00;60892.56;4847704;28;20038;-88
2022/08/16 07:16:50;;;;;;;0.55;0.50;;;;;;;-145.06;100.00;60892.56;4837322;28;20743;-89
2022/08/16 07:19:31;;;;;;;0.70;0.50;;;;;;;-145.06;100.00;60892.56;4833016;28;20409;-89
2022/08/16 07:22:10;;;;;;;0.70;0.60;;;;;;;-145.06;100.00;60892.56;4833489;28;20061;-89
2022/08/16 07:24:49;;;;;;;0.80;0.60;;;;;;;-145.06;100.00;60892.56;4840070;28;20033;-86
2022/08/16 07:27:28;;;;;;;0.70;0.60;;;;;;;-145.06;100.00;60892.56;4841014;28;20037;-86
2022/08/16 07:30:10;;;;;;;1.10;0.75;;;;;;;-145.06;100.00;60892.56;4848070;28;20030;-87
2022/08/16 07:32:49;;;;;;;0.88;0.75;;;;;;;-145.06;100.00;60892.56;4833970;28;20034;-86
2022/08/16 07:35:29;;;;;;;;;;;;;;;-145.06;100.00;60892.56;4830808;28;20030;-86
2022/08/16 07:38:08;;;;;;;0.80;0.70;;;;;;;-145.06;100.00;60892.56;4832025;28;19917;-86
2022/08/16 07:40:46;;;;;;;0.60;0.60;;;;;;;-145.06;100.00;60892.56;4826431;28;20117;-87
2022/08/16 07:43:26;;;;;;;0.70;0.70;;;;;;;-145.06;100.00;60892.56;4837112;28;20034;-86
2022/08/16 07:46:05;;;;;;;0.60;0.50;;;;;;;-145.06;100.00;60892.56;4836524;28;20183;-87
2022/08/16 07:48:44;;;;;;;0.80;0.52;;;;;;;-145.06;100.00;60892.56;4830309;28;20029;-86
2022/08/16 07:51:23;;;;;;;0.60;0.60;;;;;;;-145.06;100.00;60892.56;4842398;28;20033;-87
2022/08/16 07:54:07;;;;;;;0.87;0.70;;;;;;;-145.06;100.00;60892.56;4833824;28;20266;-86
2022/08/16 07:56:46;;;;;;;0.88;0.73;;;;;;;-145.06;100.00;60892.56;4837877;28;20033;-86
2022/08/16 07:59:25;;;;;;;1.95;0.80;;;;;;;-145.06;100.00;60892.56;4844355;28;20034;-87
2022/08/16 08:02:04;;;;;;;0.80;0.80;;;;;;;-145.06;100.00;60892.56;4840832;28;20034;-86
2022/08/16 08:04:43;;;;;;;0.77;0.77;;;;;;;-145.06;100.00;60892.56;4836446;28;20022;-86
2022/08/16 08:07:23;;;;;;;0.70;0.70;;;;;;;-145.06;100.00;60892.56;4837118;28;20029;-86
2022/08/16 08:10:04;;;;;;;0.60;0.60;;;;;;;-145.06;100.00;60892.56;4831763;28;20038;-87
2022/08/16 08:12:46;;;;;;;1.00;0.70;;;;;;;-145.06;100.00;60892.56;4867497;28;20058;-86
2022/08/16 08:15:26;;;;;;;0.80;0.80;;;;;;;-145.06;100.00;60892.56;4849449;28;20033;-87
2022/08/16 08:18:05;;;;;;;1.45;0.80;;;;;;;-145.06;100.00;60892.56;4835880;28;20021;-87
2022/08/16 08:20:44;;;;;;;2.03;0.80;;;;;;;-145.06;100.00;60892.56;4838108;28;20030;-87
2022/08/16 08:23:24;;;;;;;1.05;0.90;;;;;;;-145.06;100.00;60892.56;4836114;28;20041;-86
2022/08/16 08:26:03;;;;;;;0.82;0.60;;;;;;;-145.06;100.00;60892.56;4843102;28;20041;-88
2022/08/16 08:28:42;;;;;;;0.75;0.65;;;;;;;-145.06;100.00;60892.56;4828506;28;20030;-87
2022/08/16 08:31:21;;;;;;;0.88;0.73;;;;;;;-145.06;100.00;60892.56;4835245;28;20030;-86
2022/08/16 08:34:03;;;;;;;1.10;0.90;;;;;;;-145.06;100.00;60892.56;4844165;28;20736;-87
2022/08/16 08:36:42;;;;;;;1.10;0.77;;;;;;;-145.06;100.00;60892.56;4826691;28;20433;-86
2022/08/16 08:39:21;;;;;;;0.93;0.70;;;;;;;-145.06;100.00;60892.56;4835262;28;20034;-87
2022/08/16 08:42:01;;;;;;;1.75;0.80;;;;;;;-145.06;100.00;60892.56;4835885;28;20038;-87
2022/08/16 08:44:40;;;;;;;0.88;0.70;;;;;;;-145.06;100.00;60892.56;4856470;28;20029;-87
2022/08/16 08:47:19;;;;;;;1.13;0.73;;;;;;;-145.06;100.00;60892.56;4835917;28;20034;-87
2022/08/16 08:49:59;;;;;;;1.55;0.90;;;;;;;-145.06;100.00;60892.56;4835840;28;20022;-86
2022/08/16 08:52:38;;;;;;;1.17;0.70;;;;;;;-145.06;100.00;60892.56;4828347;28;20030;-87
2022/08/16 08:55:21;;;;;;;0.73;0.70;;;;;;;-145.06;100.00;60892.56;4836463;28;20037;-86
2022/08/16 08:58:00;;;;;;;1.10;0.80;;;;;;;-145.06;100.00;60892.56;4840488;28;20026;-87
2022/08/16 09:00:39;;;;;;;1.10;0.93;;;;;;;-145.06;100.00;60892.56;4835441;28;20018;-87
2022/08/16 09:03:18;;;;;;;0.90;0.73;;;;;;;-145.06;100.00;60892.56;4834390;28;20037;-87
2022/08/16 09:05:56;;;;;;;0.70;0.70;;;;;;;-145.06;100.00;60892.56;4835505;28;20034;-87
2022/08/16 09:08:35;;;;;;;0.73;0.70;;;;;;;-145.06;100.00;60892.56;4827962;28;20472;-87
2022/08/16 09:11:14;;;;;;;0.70;0.68;;;;;;;-145.06;100.00;60892.56;4831591;28;20423;-87
2022/08/16 09:13:54;;;;;;;0.98;0.55;;;;;;;-145.06;100.00;60892.56;4835075;28;20025;-87
2022/08/16 09:16:32;;;;;;;1.00;0.80;;;;;;;-145.06;100.00;60892.56;4835669;28;20041;-86
2022/08/16 09:19:11;;;;;;;1.23;0.85;;;;;;;-145.06;100.00;60892.56;4837219;28;20488;-87
2022/08/16 09:21:50;;;;;;;1.10;1.00;;;;;;;-145.06;100.00;60892.56;4833896;28;20084;-88
2022/08/16 09:24:30;;;;;;;1.15;0.68;;;;;;;-145.06;100.00;60892.56;4835594;28;20069;-86
2022/08/16 09:27:09;;;;;;;0.70;0.70;;;;;;;-145.06;100.00;60892.56;4837725;28;20033;-88
2022/08/16 09:29:49;;;;;;;0.55;0.50;;;;;;;-145.06;100.00;60892.56;4834939;28;20061;-87
2022/08/16 09:32:28;;;;;;;;;;;;;;;-145.06;100.00;60892.56;4835696;28;20026;-87
2022/08/16 09:35:08;;;;;;;1.02;0.60;;;;;;;-145.06;100.00;60892.56;4835853;28;19909;-87
2022/08/16 09:37:47;;;;;;;0.60;0.50;;;;;;;-145.06;100.00;60892.56;4831265;28;20018;-87
2022/08/16 09:40:27;;;;;;;0.60;0.60;;;;;;;-145.06;100.00;60892.56;4835719;28;20113;-87
2022/08/16 09:43:11;;;;;;;0.57;0.57;;;;;;;-145.06;100.00;60892.56;4832618;28;20121;-87
2022/08/16 09:45:50;;;;;;;0.60;0.60;;;;;;;-145.06;100.00;60892.56;4831185;28;20018;-87
2022/08/16 09:48:31;;;;;;;0.80;0.80;;;;;;;-145.06;100.00;60892.56;4835266;28;20037;-87
2022/08/16 09:51:12;;;;;;;1.55;0.60;;;;;;;-145.06;100.00;60892.56;4834193;28;20034;-87
2022/08/16 09:53:53;;;;;;;0.65;0.65;;;;;;;-145.06;100.00;60892.56;4832337;28;20029;-87
2022/08/16 09:56:34;;;;;;;0.60;0.60;;;;;;;-145.06;100.00;60892.56;4836242;28;20441;-88
2022/08/16 09:59:14;;;;;;;1.38;0.90;;;;;;;-145.06;100.00;60892.56;4845418;28;20022;-89
2022/08/16 10:01:53;;;;;;;0.95;0.90;;;;;;;-145.06;100.00;60892.56;4856470;28;20014;-88
2022/08/16 10:04:32;;;;;;;0.98;0.80;;;;;;;-145.06;100.00;60892.56;4843683;28;20025;-89
2022/08/16 10:07:11;;;;;;;1.10;0.95;;;;;;;-145.06;100.00;60892.56;4835482;28;20033;-88
2022/08/16 10:09:51;;;;;;;1.30;0.80;;;;;;;-145.06;100.00;60892.56;4832430;28;20523;-88
2022/08/16 10:15:27;;;;;;;0.88;0.68;;;;;;;-145.06;100.00;60892.56;4847933;28;20037;-88
2022/08/16 10:18:09;;;;;;;0.70;0.70;;;;;;;-145.06;100.00;60892.56;4839983;28;20026;-89
2022/08/16 10:20:48;;;;;;;0.75;0.75;;;;;;;-145.06;100.00;60892.56;4832394;28;20026;-89
2022/08/16 10:23:28;;;;;;;;;;;;;;;-145.06;100.00;60892.56;4839394;28;20041;-88
2022/08/16 10:26:07;;;;;;;0.57;0.50;;;;;;;-145.06;100.00;60892.56;4843666;28;19909;-88
2022/08/16 10:28:47;;;;;;;0.70;0.60;;;;;;;-145.06;100.00;60892.56;4834044;28;20121;-89
2022/08/16 10:31:26;;;;;;;2.13;0.68;;;;;;;-145.06;100.00;60892.56;4838425;28;20117;-89
2022/08/16 10:34:05;;;;;;;0.60;0.60;;;;;;;-145.06;100.00;60892.56;4840667;28;20037;-88
2022/08/16 10:36:43;;;;;;;0.70;0.60;;;;;;;-145.06;100.00;60892.56;4838086;28;20034;-88
2022/08/16 10:39:22;;;;;;;0.68;0.60;;;;;;;-145.06;100.00;60892.56;4836997;28;20037;-88
2022/08/16 10:42:01;;;;;;;0.98;0.80;;;;;;;-145.06;100.00;60892.56;4836844;28;20026;-89
2022/08/16 10:44:41;;;;;;;0.77;0.63;;;;;;;-145.06;100.00;60892.56;4835670;28;20037;-89
2022/08/16 10:47:21;;;;;;;0.98;0.90;;;;;;;-145.06;100.00;60892.56;4838372;28;20034;-88
2022/08/16 10:50:01;;;;;;;0.70;0.60;;;;;;;-145.06;100.00;60892.56;4839391;28;20495;-88
2022/08/16 10:52:40;;;;;;;0.70;0.70;;;;;;;-145.06;100.00;60892.56;4837934;28;20030;-88
2022/08/16 10:55:19;;;;;;;1.05;0.77;;;;;;;-145.06;100.00;60892.56;4840300;28;20049;-87
2022/08/16 10:58:01;;;;;;;1.10;0.82;;;;;;;-145.06;100.00;60892.56;4834031;28;20116;-89
2022/08/16 11:00:41;;;;;;;0.88;0.80;;;;;;;-145.06;100.00;60892.56;4841596;28;20026;-88
2022/08/16 11:03:21;;;;;;;0.57;0.55;;;;;;;-145.06;100.00;60892.56;4836729;28;20513;-88
2022/08/16 11:06:00;;;;;;;1.00;0.80;;;;;;;-145.06;100.00;60892.56;4838285;28;20101;-88
2022/08/16 11:08:39;;;;;;;0.88;0.82;;;;;;;-145.06;100.00;60892.56;4837025;28;20501;-88
2022/08/16 11:11:18;;;;;;;1.00;0.82;;;;;;;-145.06;100.00;60892.56;4832767;28;20480;-87
2022/08/16 11:13:57;;;;;;;1.00;0.90;;;;;;;-145.06;100.00;60892.56;4840575;28;20084;-88
2022/08/16 11:16:36;;;;;;;0.90;0.80;;;;;;;-145.06;100.00;60892.56;4829280;28;20042;-88
2022/08/16 11:19:16;;;;;;;1.35;0.80;;;;;;;-145.06;100.00;60892.56;4837066;28;20026;-88
2022/08/16 11:21:56;;;;;;;1.65;0.80;;;;;;;-145.06;100.00;60892.56;4835718;28;20025;-88
2022/08/16 11:24:39;;;;;;;0.63;0.60;;;;;;;-145.06;100.00;60892.56;4837729;28;20029;-89
2022/08/16 11:27:20;;;;;;;1.33;0.80;;;;;;;-145.06;100.00;60892.56;4837377;28;20073;-88
2022/08/16 11:29:59;;;;;;;0.80;0.77;;;;;;;-145.06;100.00;60892.56;4830370;28;20050;-87
2022/08/16 11:32:39;;;;;;;1.33;0.52;;;;;;;-145.06;100.00;60892.56;4831626;28;20665;-88
2022/08/16 11:35:23;;;;;;;0.60;0.57;;;;;;;-145.06;100.00;60892.56;4837384;28;20041;-89
2022/08/16 11:38:10;;;;;;;1.17;0.70;;;;;;;-145.06;100.00;60892.56;4836917;28;20501;-89
2022/08/16 11:40:57;;;;;;;0.73;0.73;;;;;;;-145.06;100.00;60892.56;4844129;28;20033;-89
2022/08/16 11:43:39;;;;;;;1.10;0.68;;;;;;;-145.06;100.00;60892.56;4837427;28;20025;-89
2022/08/16 11:46:19;;;;;;;1.05;0.70;;;;;;;-145.06;100.00;60892.56;4839719;28;20022;-89
2022/08/16 11:48:58;;;;;;;1.10;0.90;;;;;;;-145.06;100.00;60892.56;4837667;28;20029;-88
2022/08/16 11:51:38;;;;;;;1.13;0.80;;;;;;;-145.06;100.00;60892.56;4841753;28;20105;-88
2022/08/16 11:54:17;;;;;;;0.85;0.80;;;;;;;-145.06;100.00;60892.56;4834825;28;20389;-88
2022/08/16 11:56:56;;;;;;;1.15;0.70;;;;;;;-145.06;100.00;60892.56;4836174;28;20108;-89
2022/08/16 11:59:36;;;;;;;1.42;0.65;;;;;;;-145.06;100.00;60892.56;4832034;28;20030;-88
2022/08/16 12:02:15;;;;;;;0.75;0.68;;;;;;;-145.06;100.00;60892.56;4837442;28;20480;-88
2022/08/16 12:04:54;;;;;;;0.95;0.85;;;;;;;-145.06;100.00;60892.56;4838644;28;20240;-88
2022/08/16 12:07:33;;;;;;;0.95;0.68;;;;;;;-145.06;100.00;60892.56;4828961;28;20041;-89
2022/08/16 12:10:16;;;;;;;0.75;0.50;;;;;;;-145.06;100.00;60892.56;4847473;28;20042;-88